createdAt,value
2022-08-23T00:00:13.378Z,101588.41
2022-08-23T00:02:43.348Z,101598.69
2022-08-23T00:05:13.686Z,101599.97
2022-08-23T00:07:46.249Z,101596.41
2022-08-23T00:10:17.838Z,101604.56
2022-08-23T00:12:47.634Z,101598.81
2022-08-23T00:15:18.403Z,101593.41
2022-08-23T00:17:46.345Z,101599.81
2022-08-23T00:20:19.946Z,101605.81
2022-08-23T00:22:48.427Z,101598.38
2022-08-23T00:25:17.037Z,101601.53
2022-08-23T00:27:46.256Z,101599.53
2022-08-23T00:30:16.482Z,101604.69
2022-08-23T00:32:45.524Z,101604.97
2022-08-23T00:35:26.771Z,101600.09
2022-08-23T00:38:14.736Z,101605.97
2022-08-23T00:40:45.408Z,101609.25
2022-08-23T00:43:33.212Z,101602.81
2022-08-23T00:46:24.078Z,101612.25
2022-08-23T00:48:52.747Z,101603.69
2022-08-23T00:51:27.736Z,101607.81
2022-08-23T00:54:00.479Z,101608.13
2022-08-23T00:56:32.237Z,101602.53
2022-08-23T00:59:01.625Z,101602.97
2022-08-23T01:01:30.049Z,101598.97
2022-08-23T01:04:04.909Z,101608.66
2022-08-23T01:06:39.620Z,101596.69
2022-08-23T01:09:13.162Z,101596.97
2022-08-23T01:11:47.084Z,101598.69
2022-08-23T01:14:20.008Z,101596.81
2022-08-23T01:16:55.481Z,101600.25
2022-08-23T01:19:31.758Z,101600.25
2022-08-23T01:22:10.462Z,101597.97
2022-08-23T01:25:06.424Z,101606.69
2022-08-23T01:27:29.831Z,101607.81
2022-08-23T01:30:04.527Z,101604.66
2022-08-23T01:32:33.145Z,101596.97
2022-08-23T01:35:01.219Z,101610.38
2022-08-23T01:37:29.193Z,101609.81
2022-08-23T01:39:58.836Z,101610.22
2022-08-23T01:42:27.461Z,101613.50
2022-08-23T01:44:55.454Z,101604.38
2022-08-23T01:47:23.562Z,101599.09
2022-08-23T01:49:51.628Z,101602.25
2022-08-23T01:52:19.630Z,101604.25
2022-08-23T01:54:47.786Z,101598.97
2022-08-23T01:57:17.554Z,101605.69
2022-08-23T01:59:45.568Z,101604.09
2022-08-23T02:02:15.296Z,101605.09
2022-08-23T02:04:43.301Z,101594.66
2022-08-23T02:07:11.476Z,101603.66
2022-08-23T02:09:39.657Z,101602.66
2022-08-23T02:12:09.260Z,101596.38
2022-08-23T02:14:42.225Z,101600.94
2022-08-23T02:17:10.689Z,101609.47
2022-08-23T02:19:40.053Z,101604.06
2022-08-23T02:22:09.778Z,101614.19
2022-08-23T02:24:41.815Z,101597.38
2022-08-23T02:27:10.125Z,101594.97
2022-08-23T02:29:40.203Z,101597.78
2022-08-23T02:32:09.662Z,101590.94
2022-08-23T02:34:38.658Z,101602.50
2022-08-23T02:37:07.392Z,101598.09
2022-08-23T02:39:35.872Z,101609.06
2022-08-23T02:42:07.593Z,101607.34
2022-08-23T02:44:38.565Z,101603.50
2022-08-23T02:47:09.343Z,101605.81
2022-08-23T02:49:37.927Z,101608.06
2022-08-23T02:52:07.563Z,101602.53
2022-08-23T02:54:36.297Z,101601.81
2022-08-23T02:57:04.666Z,101616.09
2022-08-23T02:59:32.692Z,101614.06
2022-08-23T03:02:00.710Z,101613.19
2022-08-23T03:04:31.198Z,101617.03
2022-08-23T03:06:59.132Z,101614.91
2022-08-23T03:09:27.362Z,101618.00
2022-08-23T03:11:55.314Z,101614.72
2022-08-23T03:14:24.715Z,101618.75
2022-08-23T03:16:53.011Z,101613.47
2022-08-23T03:19:24.512Z,101619.47
2022-08-23T03:21:54.222Z,101616.31
2022-08-23T03:24:22.978Z,101612.06
2022-08-23T03:26:51.235Z,101621.47
2022-08-23T03:29:19.816Z,101624.16
2022-08-23T03:31:47.939Z,101622.41
2022-08-23T03:34:15.864Z,101630.06
2022-08-23T03:36:43.926Z,101628.94
2022-08-23T03:39:13.859Z,101632.75
2022-08-23T03:41:41.965Z,101637.34
2022-08-23T03:44:09.985Z,101635.91
2022-08-23T03:46:41.348Z,101642.03
2022-08-23T03:49:10.128Z,101642.97
2022-08-23T03:51:38.276Z,101640.00
2022-08-23T03:54:07.408Z,101638.44
2022-08-23T03:56:40.270Z,101643.59
2022-08-23T03:59:12.004Z,101648.16
2022-08-23T04:01:40.062Z,101640.97
2022-08-23T04:04:08.141Z,101641.38
2022-08-23T04:06:36.129Z,101640.84
2022-08-23T04:09:04.468Z,101651.25
2022-08-23T04:11:33.018Z,101649.84
2022-08-23T04:14:02.505Z,101649.31
2022-08-23T04:16:37.506Z,101653.59
2022-08-23T04:19:06.267Z,101658.16
2022-08-23T04:21:39.328Z,101657.25
2022-08-23T04:24:07.648Z,101653.38
2022-08-23T04:26:35.850Z,101658.50
2022-08-23T04:29:05.652Z,101666.63
2022-08-23T04:31:35.569Z,101662.66
2022-08-23T04:34:08.461Z,101668.44
2022-08-23T04:36:39.906Z,101672.63
2022-08-23T04:39:09.176Z,101672.63
2022-08-23T04:41:54.786Z,101670.06
2022-08-23T04:44:25.004Z,101663.81
2022-08-23T04:46:53.023Z,101667.50
2022-08-23T04:49:23.024Z,101672.91
2022-08-23T04:51:53.552Z,101681.63
2022-08-23T04:54:22.658Z,101682.50
2022-08-23T04:56:51.809Z,101683.91
2022-08-23T04:59:20.189Z,101688.94
2022-08-23T05:01:50.201Z,101688.25
2022-08-23T05:04:18.432Z,101696.09
2022-08-23T05:06:47.012Z,101690.47
2022-08-23T05:09:18.557Z,101696.25
2022-08-23T05:11:49.412Z,101694.97
2022-08-23T05:14:17.592Z,101698.53
2022-08-23T05:16:45.598Z,101694.84
2022-08-23T05:19:15.412Z,101700.41
2022-08-23T05:21:43.510Z,101699.91
2022-08-23T05:24:13.482Z,101704.78
2022-08-23T05:26:42.527Z,101712.22
2022-08-23T05:29:10.988Z,101698.38
2022-08-23T05:31:39.144Z,101706.53
2022-08-23T05:34:07.360Z,101706.41
2022-08-23T05:36:37.865Z,101708.56
2022-08-23T05:39:25.701Z,101709.56
2022-08-23T05:42:00.872Z,101712.03
2022-08-23T05:44:29.035Z,101715.22
2022-08-23T05:47:02.527Z,101718.91
2022-08-23T05:49:31.132Z,101711.94
2022-08-23T05:52:00.682Z,101717.94
2022-08-23T05:54:28.694Z,101703.56
2022-08-23T05:56:56.761Z,101706.00
2022-08-23T05:59:24.727Z,101712.16
2022-08-23T06:01:54.208Z,101720.16
2022-08-23T06:04:22.304Z,101721.59
2022-08-23T06:06:50.582Z,101724.16
2022-08-23T06:09:21.718Z,101723.00
2022-08-23T06:11:49.967Z,101726.72
2022-08-23T06:14:18.459Z,101722.56
2022-08-23T06:16:51.587Z,101733.13
2022-08-23T06:19:21.913Z,101734.88
2022-08-23T06:21:51.431Z,101727.00
2022-08-23T06:24:21.738Z,101732.28
2022-08-23T06:26:50.104Z,101738.69
2022-08-23T06:29:20.545Z,101737.09
2022-08-23T06:31:53.959Z,101737.81
2022-08-23T06:34:25.569Z,101743.84
2022-08-23T06:36:56.353Z,101736.97
2022-08-23T06:39:27.432Z,101740.97
2022-08-23T06:42:00.845Z,101745.81
2022-08-23T06:44:29.816Z,101742.41
2022-08-23T06:46:58.583Z,101739.00
2022-08-23T06:49:27.825Z,101745.47
2022-08-23T06:52:00.021Z,101744.75
2022-08-23T06:54:34.073Z,101746.44
2022-08-23T06:57:03.599Z,101744.59
2022-08-23T06:59:31.920Z,101742.41
2022-08-23T07:02:09.041Z,101743.56
2022-08-23T07:04:44.788Z,101749.53
2022-08-23T07:07:13.409Z,101747.25
2022-08-23T07:09:42.832Z,101746.00
2022-08-23T07:12:11.091Z,101739.44
2022-08-23T07:14:39.762Z,101729.34
2022-08-23T07:17:09.698Z,101740.44
2022-08-23T07:19:37.796Z,101748.59
2022-08-23T07:22:07.360Z,101741.53
2022-08-23T07:24:35.398Z,101749.06
2022-08-23T07:27:08.794Z,101743.97
2022-08-23T07:29:37.983Z,101747.75
2022-08-23T07:32:06.189Z,101753.53
2022-08-23T07:34:34.434Z,101747.00
2022-08-23T07:37:02.637Z,101753.78
2022-08-23T07:39:31.879Z,101754.63
2022-08-23T07:42:00.859Z,101754.72
2022-08-23T07:44:30.525Z,101751.41
2022-08-23T07:46:58.988Z,101751.47
2022-08-23T07:49:29.454Z,101747.41
2022-08-23T07:51:58.936Z,101757.19
2022-08-23T07:54:28.479Z,101746.56
2022-08-23T07:56:56.531Z,101757.53
2022-08-23T07:59:24.874Z,101751.38
2022-08-23T08:01:54.687Z,101763.50
2022-08-23T08:04:22.821Z,101752.22
2022-08-23T08:07:16.877Z,101753.22
2022-08-23T08:09:40.587Z,101747.81
2022-08-23T08:12:08.990Z,101746.81
2022-08-23T08:14:37.362Z,101754.69
2022-08-23T08:17:06.976Z,101752.63
2022-08-23T08:19:34.986Z,101760.81
2022-08-23T08:22:03.197Z,101755.59
2022-08-23T08:24:31.492Z,101763.00
2022-08-23T08:26:59.807Z,101764.41
2022-08-23T08:29:27.925Z,101768.34
2022-08-23T08:31:56.534Z,101765.63
2022-08-23T08:34:26.309Z,101760.53
2022-08-23T08:36:58.466Z,101764.63
2022-08-23T08:39:31.146Z,101766.53
2022-08-23T08:42:18.735Z,101770.75
2022-08-23T08:44:52.535Z,101763.41
2022-08-23T08:47:27.827Z,101770.88
2022-08-23T08:50:02.649Z,101777.78
2022-08-23T08:52:34.152Z,101762.16
2022-08-23T08:55:06.976Z,101767.50
2022-08-23T08:57:41.664Z,101770.06
2022-08-23T09:00:13.993Z,101773.13
2022-08-23T09:02:43.421Z,101781.31
2022-08-23T09:05:15.920Z,101781.72
2022-08-23T09:07:55.076Z,101778.66
2022-08-23T09:10:51.370Z,101773.47
2022-08-23T09:13:37.030Z,101774.28
2022-08-23T09:16:16.232Z,101776.31
2022-08-23T09:18:44.776Z,101775.06
2022-08-23T09:21:16.841Z,101772.25
2022-08-23T09:23:47.000Z,101776.56
2022-08-23T09:26:23.937Z,101768.47
2022-08-23T09:28:54.770Z,101775.50
2022-08-23T09:31:41.428Z,101771.69
2022-08-23T09:34:10.023Z,101765.94
2022-08-23T09:36:40.048Z,101760.66
2022-08-23T09:39:10.378Z,101755.88
2022-08-23T09:41:43.650Z,101772.41
2022-08-23T09:44:16.516Z,101767.13
2022-08-23T09:46:45.104Z,101758.06
2022-08-23T09:49:28.531Z,101767.09
2022-08-23T09:52:00.924Z,101751.06
2022-08-23T09:54:33.360Z,101750.38
2022-08-23T09:57:03.398Z,101755.56
2022-08-23T09:59:41.691Z,101747.47
2022-08-23T10:02:17.428Z,101739.31
2022-08-23T10:04:57.747Z,101744.66
2022-08-23T10:07:31.198Z,101738.72
2022-08-23T10:10:15.457Z,101734.22
2022-08-23T10:12:43.782Z,101722.88
2022-08-23T10:15:12.407Z,101720.91
2022-08-23T10:17:52.944Z,101730.41
2022-08-23T10:20:41.600Z,101735.22
2022-08-23T10:23:25.251Z,101727.34
2022-08-23T10:25:59.367Z,101725.03
2022-08-23T10:28:57.826Z,101718.94
2022-08-23T10:31:36.123Z,101721.56
2022-08-23T10:34:19.004Z,101729.56
2022-08-23T10:36:59.480Z,101710.78
2022-08-23T10:39:30.995Z,101725.72
2022-08-23T10:42:04.884Z,101719.53
2022-08-23T10:44:38.479Z,101714.19
2022-08-23T10:47:17.552Z,101714.47
2022-08-23T10:49:50.845Z,101711.13
2022-08-23T10:52:24.051Z,101718.81
2022-08-23T10:55:16.903Z,101716.56
2022-08-23T10:57:49.233Z,101714.22
2022-08-23T11:00:20.415Z,101712.19
2022-08-23T11:02:56.220Z,101714.81
2022-08-23T11:05:27.281Z,101709.41
2022-08-23T11:08:03.744Z,101702.22
2022-08-23T11:10:53.817Z,101692.09
2022-08-23T11:13:27.727Z,101689.38
2022-08-23T11:15:59.724Z,101693.63
2022-08-23T11:18:42.152Z,101697.34
2022-08-23T11:21:33.754Z,101711.06
2022-08-23T11:24:49.831Z,101696.38
2022-08-23T11:27:30.617Z,101699.91
2022-08-23T11:29:59.162Z,101688.59
2022-08-23T11:32:40.336Z,101701.91
2022-08-23T11:35:43.481Z,101690.94
2022-08-23T11:38:13.721Z,101691.13
2022-08-23T11:40:57.619Z,101701.91
2022-08-23T11:43:31.747Z,101702.38
2022-08-23T11:46:30.468Z,101694.97
2022-08-23T11:49:15.485Z,101684.16
2022-08-23T11:51:51.275Z,101696.47
2022-08-23T11:54:32.485Z,101686.72
2022-08-23T11:57:15.115Z,101686.06
2022-08-23T12:00:06.585Z,101684.75
2022-08-23T12:02:49.311Z,101695.16
2022-08-23T12:05:32.645Z,101696.41
2022-08-23T12:08:29.756Z,101694.50
2022-08-23T12:11:07.946Z,101691.94
2022-08-23T12:14:01.787Z,101686.25
2022-08-23T12:16:49.640Z,101682.09
2022-08-23T12:19:40.109Z,101687.88
2022-08-23T12:22:14.281Z,101676.34
2022-08-23T12:24:46.305Z,101686.25
2022-08-23T12:27:29.579Z,101683.19
2022-08-23T12:30:06.217Z,101685.78
2022-08-23T12:32:44.575Z,101675.38
2022-08-23T12:35:30.227Z,101687.03
2022-08-23T12:38:07.555Z,101680.97
2022-08-23T12:40:42.495Z,101676.13
2022-08-23T12:43:21.231Z,101675.66
2022-08-23T12:45:54.634Z,101677.94
2022-08-23T12:48:27.921Z,101674.25
2022-08-23T12:50:58.054Z,101665.44
2022-08-23T12:53:32.639Z,101670.75
2022-08-23T12:56:03.989Z,101670.25
2022-08-23T12:58:35.002Z,101669.72
2022-08-23T13:01:06.563Z,101668.03
2022-08-23T13:03:39.738Z,101672.84
2022-08-23T13:06:11.114Z,101662.13
2022-08-23T13:08:43.735Z,101657.66
2022-08-23T13:11:14.323Z,101658.47
2022-08-23T13:13:45.239Z,101658.75
2022-08-23T13:16:28.923Z,101658.84
2022-08-23T13:19:22.386Z,101652.84
2022-08-23T13:22:09.344Z,101653.44
2022-08-23T13:24:39.797Z,101652.03
2022-08-23T13:27:20.739Z,101649.94
2022-08-23T13:29:57.961Z,101650.13
2022-08-23T13:32:35.790Z,101657.06
2022-08-23T13:35:30.356Z,101656.94
2022-08-23T13:38:01.381Z,101649.53
2022-08-23T13:40:32.352Z,101650.13
2022-08-23T13:43:03.792Z,101647.38
2022-08-23T13:45:34.026Z,101646.69
2022-08-23T13:48:09.037Z,101650.09
2022-08-23T13:50:39.655Z,101644.16
2022-08-23T13:53:14.858Z,101643.81
2022-08-23T13:55:47.140Z,101648.03
2022-08-23T13:58:25.540Z,101651.75
2022-08-23T14:00:55.464Z,101639.09
2022-08-23T14:03:24.567Z,101635.47
2022-08-23T14:05:54.311Z,101645.91
2022-08-23T14:08:22.613Z,101641.00
2022-08-23T14:10:51.362Z,101640.59
2022-08-23T14:13:23.685Z,101632.50
2022-08-23T14:15:56.555Z,101636.00
2022-08-23T14:18:26.765Z,101633.94
2022-08-23T14:20:56.444Z,101646.53
2022-08-23T14:23:24.409Z,101634.88
2022-08-23T14:25:56.231Z,101642.13
2022-08-23T14:28:29.488Z,101633.84
2022-08-23T14:30:58.906Z,101637.72
2022-08-23T14:33:26.899Z,101640.91
2022-08-23T14:35:57.282Z,101635.63
2022-08-23T14:38:25.496Z,101642.06
2022-08-23T14:40:59.102Z,101636.31
2022-08-23T14:43:28.109Z,101633.84
2022-08-23T14:45:56.616Z,101632.13
2022-08-23T14:48:25.932Z,101632.22
2022-08-23T14:50:54.901Z,101634.44
2022-08-23T14:53:29.032Z,101623.22
2022-08-23T14:56:18.800Z,101624.34
2022-08-23T14:58:45.895Z,101623.31
2022-08-23T15:01:14.506Z,101626.91
2022-08-23T15:03:43.087Z,101625.66
2022-08-23T15:06:11.449Z,101623.50
2022-08-23T15:08:41.698Z,101611.59
2022-08-23T15:14:00.544Z,101618.22
2022-08-23T15:16:29.682Z,101617.41
2022-08-23T15:18:59.938Z,101621.16
2022-08-23T15:21:28.013Z,101623.91
2022-08-23T15:23:57.297Z,101619.22
2022-08-23T15:26:27.586Z,101622.75
2022-08-23T15:28:55.590Z,101622.09
2022-08-23T15:31:23.972Z,101629.16
2022-08-23T15:33:52.037Z,101628.22
2022-08-23T15:36:20.381Z,101621.78
2022-08-23T15:38:52.405Z,101621.03
2022-08-23T15:41:22.310Z,101625.31
2022-08-23T15:43:50.628Z,101622.91
2022-08-23T15:46:21.815Z,101619.13
2022-08-23T15:48:55.699Z,101620.28
2022-08-23T15:51:26.493Z,101613.56
2022-08-23T15:53:54.497Z,101620.69
2022-08-23T15:56:32.876Z,101617.91
2022-08-23T15:59:00.986Z,101615.41
2022-08-23T16:01:33.677Z,101608.38
2022-08-23T16:04:02.217Z,101616.31
2022-08-23T16:06:35.788Z,101607.53
2022-08-23T16:09:06.582Z,101608.25
2022-08-23T16:11:36.185Z,101611.00
2022-08-23T16:14:05.115Z,101611.66
2022-08-23T16:16:38.045Z,101604.00
2022-08-23T16:19:07.347Z,101605.91
2022-08-23T16:21:37.250Z,101608.88
2022-08-23T16:24:06.229Z,101604.50
2022-08-23T16:26:38.639Z,101605.44
2022-08-23T16:29:13.492Z,101612.06
2022-08-23T16:31:41.978Z,101601.38
2022-08-23T16:34:12.651Z,101614.72
2022-08-23T16:36:43.640Z,101607.72
2022-08-23T16:39:12.709Z,101610.00
2022-08-23T16:41:42.190Z,101606.66
2022-08-23T16:44:10.425Z,101605.91
2022-08-23T16:46:41.156Z,101619.56
2022-08-23T16:49:09.496Z,101623.13
2022-08-23T16:51:37.531Z,101615.94
2022-08-23T16:54:07.483Z,101617.28
2022-08-23T16:56:37.138Z,101619.06
2022-08-23T16:59:09.663Z,101620.66
2022-08-23T17:01:46.130Z,101621.53
2022-08-23T17:04:14.337Z,101628.06
2022-08-23T17:06:42.960Z,101621.34
2022-08-23T17:09:12.147Z,101622.59
2022-08-23T17:11:42.753Z,101624.66
2022-08-23T17:14:12.720Z,101625.56
2022-08-23T17:16:42.305Z,101627.25
2022-08-23T17:19:10.803Z,101633.50
2022-08-23T17:21:39.318Z,101625.44
2022-08-23T17:24:07.412Z,101621.94
2022-08-23T17:26:35.489Z,101631.22
2022-08-23T17:29:04.948Z,101637.34
2022-08-23T17:31:34.408Z,101636.19
2022-08-23T17:34:04.104Z,101639.75
2022-08-23T17:36:35.258Z,101644.28
2022-08-23T17:39:06.997Z,101643.59
2022-08-23T17:41:35.503Z,101644.75
2022-08-23T17:44:03.954Z,101649.75
2022-08-23T17:46:32.310Z,101647.56
2022-08-23T17:49:01.747Z,101651.41
2022-08-23T17:51:29.801Z,101656.22
2022-08-23T17:53:57.971Z,101658.63
2022-08-23T17:56:26.915Z,101658.63
2022-08-23T17:58:55.120Z,101662.28
2022-08-23T18:01:23.352Z,101667.06
2022-08-23T18:03:51.793Z,101665.09
2022-08-23T18:06:21.517Z,101662.38
2022-08-23T18:08:49.556Z,101670.31
2022-08-23T18:11:17.946Z,101680.41
2022-08-23T18:13:46.014Z,101680.09
2022-08-23T18:16:14.455Z,101677.00
2022-08-23T18:18:42.632Z,101667.63
2022-08-23T18:21:13.150Z,101680.81
2022-08-23T18:23:42.875Z,101690.28
2022-08-23T18:26:33.728Z,101689.44
2022-08-23T18:29:03.606Z,101677.81
2022-08-23T18:31:32.489Z,101681.78
2022-08-23T18:34:01.292Z,101685.38
2022-08-23T18:36:30.546Z,101693.94
2022-08-23T18:39:03.863Z,101691.41
2022-08-23T18:41:31.918Z,101697.56
2022-08-23T18:44:00.611Z,101697.63
2022-08-23T18:46:33.971Z,101701.72
2022-08-23T18:49:01.972Z,101701.53
2022-08-23T18:51:30.139Z,101705.09
2022-08-23T18:54:00.160Z,101708.38
2022-08-23T18:56:28.710Z,101714.38
2022-08-23T18:58:56.989Z,101708.91
2022-08-23T19:01:28.170Z,101719.31
2022-08-23T19:03:57.673Z,101720.69
2022-08-23T19:06:25.666Z,101721.34
2022-08-23T19:08:54.389Z,101727.00
2022-08-23T19:11:25.179Z,101724.44
2022-08-23T19:13:53.169Z,101727.34
2022-08-23T19:16:23.613Z,101735.00
2022-08-23T19:18:52.364Z,101726.94
2022-08-23T19:21:23.498Z,101743.31
2022-08-23T19:23:53.073Z,101744.03
2022-08-23T19:26:25.952Z,101751.00
2022-08-23T19:28:54.241Z,101750.81
2022-08-23T19:31:22.201Z,101757.63
2022-08-23T19:33:51.090Z,101749.94
2022-08-23T19:36:44.820Z,101756.91
2022-08-23T19:39:08.852Z,101765.06
2022-08-23T19:41:39.735Z,101763.31
2022-08-23T19:44:08.952Z,101760.88
2022-08-23T19:46:41.185Z,101770.25
2022-08-23T19:49:10.919Z,101770.25
2022-08-23T19:51:40.169Z,101771.88
2022-08-23T19:54:10.850Z,101773.63
2022-08-23T19:56:42.775Z,101770.47
2022-08-23T20:01:48.695Z,101785.97
2022-08-23T20:04:16.711Z,101779.13
2022-08-23T20:06:44.704Z,101783.97
2022-08-23T20:09:13.710Z,101786.34
2022-08-23T20:11:43.665Z,101785.81
2022-08-23T20:14:11.756Z,101787.84
2022-08-23T20:16:40.681Z,101787.63
2022-08-23T20:19:10.189Z,101793.56
2022-08-23T20:21:38.369Z,101794.19
2022-08-23T20:24:06.226Z,101793.81
2022-08-23T20:26:40.538Z,101792.81
2022-08-23T20:29:12.391Z,101800.53
2022-08-23T20:31:49.812Z,101804.59
2022-08-23T20:34:18.010Z,101806.66
2022-08-23T20:36:46.315Z,101803.50
2022-08-23T20:39:14.353Z,101801.13
2022-08-23T20:41:42.676Z,101806.97
2022-08-23T20:44:12.033Z,101804.94
2022-08-23T20:46:40.322Z,101805.66
2022-08-23T20:49:09.092Z,101805.78
2022-08-23T20:51:37.312Z,101802.34
2022-08-23T20:54:05.715Z,101807.75
2022-08-23T20:56:34.497Z,101810.38
2022-08-23T20:59:03.381Z,101808.66
2022-08-23T21:01:32.904Z,101810.53
2022-08-23T21:04:01.551Z,101814.56
2022-08-23T21:06:37.679Z,101805.69
2022-08-23T21:09:06.155Z,101811.78
2022-08-23T21:11:34.113Z,101813.47
2022-08-23T21:14:02.537Z,101810.03
2022-08-23T21:16:30.807Z,101817.66
2022-08-23T21:19:00.541Z,101808.09
2022-08-23T21:21:29.379Z,101809.72
2022-08-23T21:23:58.246Z,101810.47
2022-08-23T21:26:27.062Z,101815.38
2022-08-23T21:28:55.186Z,101812.66
2022-08-23T21:31:25.554Z,101816.41
2022-08-23T21:33:55.053Z,101819.13
2022-08-23T21:36:25.028Z,101813.38
2022-08-23T21:38:53.140Z,101810.63
2022-08-23T21:41:33.972Z,101812.25
2022-08-23T21:44:02.359Z,101814.88
2022-08-23T21:46:30.697Z,101809.75
2022-08-23T21:48:58.869Z,101799.44
2022-08-23T21:51:28.866Z,101801.75
2022-08-23T21:53:57.324Z,101809.81
2022-08-23T21:56:26.124Z,101806.81
2022-08-23T21:58:54.789Z,101802.66
2022-08-23T22:01:22.701Z,101790.34
2022-08-23T22:03:54.865Z,101804.66
2022-08-23T22:06:25.445Z,101798.22
2022-08-23T22:08:55.016Z,101797.09
2022-08-23T22:11:24.144Z,101801.09
2022-08-23T22:13:53.839Z,101808.59
2022-08-23T22:16:22.756Z,101806.44
2022-08-23T22:18:50.859Z,101808.84
2022-08-23T22:21:18.860Z,101811.72
2022-08-23T22:23:46.916Z,101815.00
2022-08-23T22:26:16.221Z,101818.47
2022-08-23T22:28:45.040Z,101817.03
2022-08-23T22:31:15.821Z,101815.03
2022-08-23T22:33:45.159Z,101815.91
2022-08-23T22:36:16.621Z,101825.78
2022-08-23T22:38:44.868Z,101820.63
2022-08-23T22:41:18.782Z,101822.78
2022-08-23T22:43:46.997Z,101820.06
2022-08-23T22:46:15.047Z,101825.34
2022-08-23T22:48:43.260Z,101826.78
2022-08-23T22:51:13.548Z,101824.22
2022-08-23T22:53:44.467Z,101832.22
2022-08-23T22:56:14.968Z,101825.97
2022-08-23T22:58:45.497Z,101829.81
2022-08-23T23:01:20.711Z,101833.09
2022-08-23T23:03:49.678Z,101839.56
2022-08-23T23:06:20.364Z,101836.41
2022-08-23T23:08:48.899Z,101831.97
2022-08-23T23:11:18.043Z,101834.69
2022-08-23T23:13:48.012Z,101835.53
2022-08-23T23:16:21.413Z,101837.53
2022-08-23T23:19:04.240Z,101832.94
2022-08-23T23:21:34.284Z,101834.22
2022-08-23T23:24:02.552Z,101835.38
2022-08-23T23:26:30.683Z,101835.06
2022-08-23T23:29:00.147Z,101831.63
2022-08-23T23:31:28.314Z,101826.34
2022-08-23T23:33:56.278Z,101832.78
2022-08-23T23:36:24.584Z,101828.63
2022-08-23T23:38:52.795Z,101826.16
2022-08-23T23:41:21.535Z,101827.19
2022-08-23T23:43:49.541Z,101825.59
2022-08-23T23:46:20.845Z,101823.88
2022-08-23T23:48:51.373Z,101829.03
2022-08-23T23:51:21.864Z,101832.72
2022-08-23T23:53:50.379Z,101825.00
2022-08-23T23:56:19.769Z,101829.25
2022-08-23T23:58:48.353Z,101829.00
